createdAt,value
2022-09-03T00:00:25.262Z,14.90
2022-09-03T00:05:51.923Z,14.82
2022-09-03T00:11:07.313Z,14.82
2022-09-03T00:16:16.183Z,14.78
2022-09-03T00:21:24.737Z,14.77
2022-09-03T00:26:32.985Z,14.76
2022-09-03T00:31:44.212Z,14.73
2022-09-03T00:36:50.707Z,14.68
2022-09-03T00:42:15.724Z,14.71
2022-09-03T00:47:27.322Z,14.70
2022-09-03T00:53:00.446Z,14.67
2022-09-03T00:58:10.774Z,14.65
2022-09-03T01:03:23.962Z,14.64
2022-09-03T01:08:51.176Z,14.60
2022-09-03T01:14:11.749Z,14.54
2022-09-03T01:19:36.662Z,14.43
2022-09-03T01:25:01.692Z,14.39
2022-09-03T01:30:11.136Z,14.34
2022-09-03T01:35:23.065Z,14.29
2022-09-03T01:40:42.039Z,14.26
2022-09-03T01:46:00.877Z,14.29
2022-09-03T01:51:21.897Z,14.27
2022-09-03T01:56:36.309Z,14.24
2022-09-03T02:01:44.927Z,14.21
2022-09-03T02:06:52.512Z,14.18
2022-09-03T02:12:01.204Z,14.20
2022-09-03T02:17:08.080Z,14.22
2022-09-03T02:22:14.498Z,14.21
2022-09-03T02:27:21.072Z,14.23
2022-09-03T02:32:27.146Z,14.21
2022-09-03T02:37:32.721Z,14.20
2022-09-03T02:42:38.885Z,14.18
2022-09-03T02:47:46.216Z,15.03
2022-09-03T02:52:52.153Z,14.43
2022-09-03T02:57:57.666Z,14.32
2022-09-03T03:03:04.142Z,14.27
2022-09-03T03:08:10.291Z,14.17
2022-09-03T03:13:16.061Z,14.10
2022-09-03T03:18:21.643Z,14.05
2022-09-03T03:23:27.188Z,14.08
2022-09-03T03:28:33.996Z,14.02
2022-09-03T03:33:40.559Z,13.98
2022-09-03T03:38:46.489Z,13.96
2022-09-03T03:44:00.177Z,13.93
2022-09-03T03:49:10.420Z,13.92
2022-09-03T03:54:17.582Z,13.92
2022-09-03T03:59:23.495Z,13.86
2022-09-03T04:04:29.419Z,13.87
2022-09-03T04:09:35.504Z,13.84
2022-09-03T04:14:42.665Z,13.85
2022-09-03T04:19:48.987Z,13.86
2022-09-03T04:24:54.548Z,13.83
2022-09-03T04:30:00.130Z,13.85
2022-09-03T04:35:08.113Z,13.85
2022-09-03T04:40:14.010Z,13.88
2022-09-03T04:45:20.492Z,13.84
2022-09-03T04:50:28.206Z,13.91
2022-09-03T04:55:37.644Z,13.86
2022-09-03T05:00:43.188Z,13.89
2022-09-03T05:05:56.738Z,13.91
2022-09-03T05:11:02.822Z,13.97
2022-09-03T05:16:11.876Z,14.03
2022-09-03T05:21:19.741Z,14.08
2022-09-03T05:26:28.692Z,14.12
2022-09-03T05:31:35.037Z,14.20
2022-09-03T05:36:40.656Z,14.32
2022-09-03T05:41:46.188Z,14.68
2022-09-03T05:46:52.253Z,14.55
2022-09-03T05:51:58.136Z,14.56
2022-09-03T05:57:04.207Z,15.58
2022-09-03T06:02:09.851Z,14.91
2022-09-03T06:07:17.184Z,14.97
2022-09-03T06:12:22.648Z,15.09
2022-09-03T06:17:28.239Z,15.15
2022-09-03T06:22:34.179Z,15.23
2022-09-03T06:27:39.755Z,15.39
2022-09-03T06:32:50.657Z,15.49
2022-09-03T06:37:56.196Z,15.64
2022-09-03T06:43:03.401Z,15.79
2022-09-03T06:48:08.963Z,15.85
2022-09-03T06:53:15.163Z,15.95
2022-09-03T06:58:20.707Z,16.07
2022-09-03T07:03:26.375Z,16.28
2022-09-03T07:08:33.031Z,16.45
2022-09-03T07:13:41.697Z,16.49
2022-09-03T07:18:47.578Z,16.69
2022-09-03T07:23:54.649Z,16.88
2022-09-03T07:29:04.010Z,16.97
2022-09-03T07:34:12.756Z,17.18
2022-09-03T07:39:19.087Z,17.34
2022-09-03T07:44:24.924Z,17.45
2022-09-03T07:49:30.480Z,17.51
2022-09-03T07:54:36.257Z,17.63
2022-09-03T07:59:42.232Z,17.73
2022-09-03T08:04:47.797Z,17.78
2022-09-03T08:09:53.361Z,17.99
2022-09-03T08:14:58.869Z,18.14
2022-09-03T08:20:05.634Z,18.24
2022-09-03T08:25:13.731Z,18.29
2022-09-03T08:30:19.212Z,18.45
2022-09-03T08:35:24.903Z,18.58
2022-09-03T08:40:30.943Z,18.82
2022-09-03T08:45:39.614Z,18.98
2022-09-03T08:50:53.033Z,19.10
2022-09-03T08:56:01.668Z,19.27
2022-09-03T09:01:19.359Z,19.35
2022-09-03T09:06:36.451Z,19.39
2022-09-03T09:12:03.242Z,19.52
2022-09-03T09:17:35.917Z,19.60
2022-09-03T09:22:47.298Z,19.79
2022-09-03T09:28:01.662Z,19.91
2022-09-03T09:33:07.400Z,20.01
2022-09-03T09:38:15.381Z,20.16
2022-09-03T09:43:22.134Z,20.23
2022-09-03T09:48:34.412Z,20.44
2022-09-03T09:53:41.866Z,20.66
2022-09-03T09:58:49.105Z,20.82
2022-09-03T10:04:00.300Z,20.88
2022-09-03T10:09:14.021Z,21.02
2022-09-03T10:14:28.254Z,21.18
2022-09-03T10:19:54.679Z,21.34
2022-09-03T10:25:01.887Z,21.32
2022-09-03T10:30:09.330Z,21.41
2022-09-03T10:35:29.913Z,21.57
2022-09-03T10:40:44.275Z,21.74
2022-09-03T10:46:09.717Z,21.77
2022-09-03T10:51:31.967Z,21.41
2022-09-03T10:56:45.756Z,21.78
2022-09-03T11:01:57.514Z,21.87
2022-09-03T11:07:06.482Z,22.05
2022-09-03T11:12:15.011Z,22.08
2022-09-03T11:17:29.379Z,22.18
2022-09-03T11:22:38.834Z,22.28
2022-09-03T11:27:47.434Z,22.15
2022-09-03T11:32:56.129Z,22.15
2022-09-03T11:38:04.465Z,22.43
2022-09-03T11:43:16.044Z,22.42
2022-09-03T11:48:30.209Z,22.39
2022-09-03T11:53:37.288Z,22.36
2022-09-03T11:58:43.622Z,22.51
2022-09-03T12:04:02.778Z,22.60
2022-09-03T12:09:29.234Z,22.33
2022-09-03T12:14:44.326Z,22.18
2022-09-03T12:19:58.738Z,22.46
2022-09-03T12:25:15.464Z,22.54
2022-09-03T12:30:25.778Z,22.85
2022-09-03T12:41:23.562Z,22.76
2022-09-03T12:46:10.468Z,22.92
2022-09-03T12:56:14.600Z,23.44
2022-09-03T13:01:26.104Z,23.23
2022-09-03T13:06:34.629Z,23.54
2022-09-03T13:11:40.627Z,23.48
2022-09-03T13:16:49.229Z,23.30
2022-09-03T13:22:14.793Z,23.44
2022-09-03T13:27:26.094Z,23.44
2022-09-03T13:32:40.780Z,23.59
2022-09-03T13:38:10.612Z,24.00
2022-09-03T13:43:39.214Z,23.86
2022-09-03T13:49:04.751Z,23.70
2022-09-03T13:54:42.849Z,23.98
2022-09-03T13:59:36.198Z,24.02
2022-09-03T14:04:50.723Z,24.18
2022-09-03T14:10:14.115Z,24.27
2022-09-03T14:15:34.616Z,24.00
2022-09-03T14:20:46.972Z,24.05
2022-09-03T14:26:01.388Z,24.06
2022-09-03T14:31:12.736Z,23.82
2022-09-03T14:36:33.671Z,23.79
2022-09-03T14:42:09.723Z,24.05
2022-09-03T14:47:21.276Z,24.13
2022-09-03T14:52:35.817Z,24.16
2022-09-03T14:58:08.397Z,23.90
2022-09-03T15:03:26.355Z,23.73
2022-09-03T15:09:02.024Z,23.73
2022-09-03T15:14:16.698Z,23.75
2022-09-03T15:19:46.346Z,23.99
2022-09-03T15:25:07.258Z,24.18
2022-09-03T15:30:15.822Z,23.99
2022-09-03T15:35:40.859Z,24.07
2022-09-03T15:40:50.282Z,23.95
2022-09-03T15:46:11.483Z,24.04
2022-09-03T15:51:25.919Z,23.96
2022-09-03T15:56:47.869Z,23.93
2022-09-03T16:02:02.205Z,23.94
2022-09-03T16:07:22.914Z,23.83
2022-09-03T16:12:34.930Z,23.67
2022-09-03T16:18:04.966Z,23.43
2022-09-03T16:23:22.567Z,23.30
2022-09-03T16:28:40.002Z,23.02
2022-09-03T16:34:07.028Z,22.81
2022-09-03T16:39:15.658Z,22.70
2022-09-03T16:44:28.636Z,22.65
2022-09-03T16:49:53.937Z,22.39
2022-09-03T16:55:08.912Z,22.34
2022-09-03T17:00:21.080Z,22.22
2022-09-03T17:06:01.568Z,22.06
2022-09-03T17:11:22.025Z,22.00
2022-09-03T17:16:33.521Z,21.88
2022-09-03T17:22:07.568Z,21.78
2022-09-03T17:27:49.901Z,21.71
2022-09-03T17:33:03.133Z,21.66
2022-09-03T17:38:28.374Z,21.54
2022-09-03T17:43:49.140Z,21.37
2022-09-03T17:49:03.756Z,21.16
2022-09-03T17:54:17.870Z,20.96
2022-09-03T17:59:35.479Z,20.77
2022-09-03T18:04:50.053Z,20.62
2022-09-03T18:10:25.224Z,20.45
2022-09-03T18:15:42.830Z,20.29
2022-09-03T18:21:31.315Z,20.07
2022-09-03T18:26:41.389Z,19.93
2022-09-03T18:32:05.087Z,19.75
2022-09-03T18:37:28.597Z,19.60
2022-09-03T18:43:04.169Z,19.46
2022-09-03T18:48:51.811Z,19.39
2022-09-03T18:54:24.085Z,19.24
2022-09-03T19:00:00.666Z,19.11
2022-09-03T19:05:48.629Z,18.94
2022-09-03T19:11:17.653Z,18.76
2022-09-03T19:17:00.907Z,18.59
2022-09-03T19:22:27.251Z,18.44
2022-09-03T19:28:25.053Z,18.28
2022-09-03T19:34:14.686Z,18.18
2022-09-03T19:39:41.122Z,18.03
2022-09-03T19:45:41.235Z,17.91
2022-09-03T19:51:07.690Z,17.83
2022-09-03T19:56:33.838Z,17.71
2022-09-03T20:01:58.001Z,17.71
2022-09-03T20:07:25.004Z,17.72
2022-09-03T20:12:34.172Z,17.66
2022-09-03T20:18:02.327Z,17.59
2022-09-03T20:23:09.832Z,17.58
2022-09-03T20:28:51.989Z,17.52
2022-09-03T20:34:03.382Z,17.43
2022-09-03T20:39:17.710Z,17.29
2022-09-03T20:44:46.146Z,17.19
2022-09-03T20:50:03.601Z,17.14
2022-09-03T20:55:27.084Z,17.17
2022-09-03T21:00:42.987Z,17.17
2022-09-03T21:05:54.506Z,17.15
2022-09-03T21:11:08.960Z,17.14
2022-09-03T21:16:44.135Z,17.16
2022-09-03T21:22:01.581Z,17.14
2022-09-03T21:27:10.526Z,17.10
2022-09-03T21:32:28.465Z,17.17
2022-09-03T21:37:36.918Z,17.13
2022-09-03T21:42:52.490Z,17.09
2022-09-03T21:48:01.071Z,17.11
2022-09-03T21:53:20.928Z,16.99
2022-09-03T21:58:32.229Z,16.95
2022-09-03T22:03:37.688Z,16.83
2022-09-03T22:08:54.522Z,16.82
2022-09-03T22:14:03.184Z,16.81
2022-09-03T22:19:09.273Z,16.79
2022-09-03T22:24:22.186Z,16.75
2022-09-03T22:29:51.659Z,16.67
2022-09-03T22:35:03.102Z,16.61
2022-09-03T22:40:21.581Z,16.54
2022-09-03T22:45:33.293Z,16.57
2022-09-03T22:50:44.606Z,16.53
2022-09-03T22:55:56.071Z,16.49
2022-09-03T23:01:04.810Z,16.48
2022-09-03T23:06:34.358Z,16.46
2022-09-03T23:11:43.888Z,16.46
2022-09-03T23:17:01.038Z,16.37
2022-09-03T23:22:09.579Z,16.36
2022-09-03T23:27:27.127Z,16.27
2022-09-03T23:32:33.722Z,16.21
2022-09-03T23:37:55.252Z,16.17
2022-09-03T23:43:37.538Z,16.14
2022-09-03T23:48:48.981Z,16.02
2022-09-03T23:54:13.999Z,15.93
2022-09-03T23:59:42.396Z,15.90
